Weather reports worldwide

Advertisment
Zinnwald-Georgenfeld, Germany (10582): temperature & dewpoint: 06.11.2019 17:00:00 - 12.11.2019 17:00:00 (CET)Zinnwald-Georgenfeld, Germany (10582): temperature 5cm & temperature -5cm: 06.11.2019 17:00:00 - 12.11.2019 17:00:00 (CET)Zinnwald-Georgenfeld, Germany (10582): temperature -20cm & temperature -100cm: 06.11.2019 17:00:00 - 12.11.2019 17:00:00 (CET)Zinnwald-Georgenfeld, Germany (10582): wind speed & gusts: 06.11.2019 17:00:00 - 12.11.2019 17:00:00 (CET)Zinnwald-Georgenfeld, Germany (10582): wind direction: 06.11.2019 17:00:00 - 12.11.2019 17:00:00 (CET)Zinnwald-Georgenfeld, Germany (10582): visibility: 06.11.2019 17:00:00 - 12.11.2019 17:00:00 (CET)Zinnwald-Georgenfeld, Germany (10582): precipitation: 06.11.2019 17:00:00 - 12.11.2019 17:00:00 (CET)
Date & Time tt [°C] td [°C] tt 5cm [°C] tt -5cm [°C] tt -20cm [°C] tt -100cm [°C] ff [km/h] ff [kn] fx [km/h] fx [kn] dd vv [km] rr [mm]
12.11.2019 17:00:00 -0,3 -0,5 -0,3 0,2 2,6 7,9 18 10 28 15 SSE 0,1 0,1
12.11.2019 16:00:00 -0,3 -0,4 -0,4 0,2 2,6 7,9 14 8 23 12 SSE 0,1 0,0
12.11.2019 15:00:00 -0,4 -0,5 -0,3 0,2 2,6 7,9 11 6 21 11 S 0,1 0,0
12.11.2019 14:00:00 -0,4 -0,5 -0,4 0,2 2,6 7,9 14 8 27 14 S 0,1 0,0
12.11.2019 13:00:00 -0,4 -0,6 -0,3 0,2 2,6 8,0 21 11 27 14 SSW 0,1 0,0
12.11.2019 12:00:00 -0,8 -1,0 -0,6 0,2 2,6 8,0 17 9 25 13 SSW 0,1 0,0
12.11.2019 11:00:00 -1,1 -1,4 -1,0 0,2 2,7 8,0 17 9 27 15 S 0,1 0,0
12.11.2019 10:00:00 -0,6 -0,8 -0,5 0,2 2,7 8,0 23 12 32 17 SSW 0,3 0,0
12.11.2019 09:00:00 -1,0 -1,3 -0,9 0,2 2,7 8,0 21 12 29 16 SSW 0,2 0,0
12.11.2019 08:00:00 -1,3 -1,6 -1,3 0,2 2,7 8,0 22 12 33 18 SSW 0,1 0,0
12.11.2019 07:00:00 -1,1 -1,4 -1,3 0,2 2,7 8,0 22 12 32 17 SSW 3,1 0,0
12.11.2019 06:00:00 -1,2 -1,5 -1,3 0,2 2,7 8,0 26 14 40 22 SSW 4,2 0,1
12.11.2019 05:00:00 -1,8 -2,1 -1,7 0,2 2,7 8,0 18 10 40 22 S 0,1 0,0
12.11.2019 04:00:00 -1,8 -2,2 -1,7 0,2 2,7 8,0 23 12 31 17 S 0,1 0,0
12.11.2019 03:00:00 -0,7 -1,1 -0,8 0,2 2,7 8,1 15 8 34 19 SW 21 0,0
12.11.2019 02:00:00 -0,5 -0,8 -0,7 0,2 2,8 8,1 29 16 42 23 SSW 11 0,0
12.11.2019 01:00:00 -0,8 -1,0 -0,8 0,2 2,8 8,1 32 17 48 26 SSW 1,0 0,0
12.11.2019 00:00:00 -0,5 -0,6 -0,6 0,2 2,8 8,1 27 15 48 26 S 0,1 0,0
11.11.2019 23:00:00 -0,8 -1,0 -0,7 0,2 2,8 8,1 31 17 48 26 S 0,1 0,0
11.11.2019 22:00:00 -1,4 -1,7 -1,4 0,2 2,8 8,1 33 18 49 26 S 0,1 0,0
11.11.2019 21:00:00 -1,4 -1,6 -1,4 0,2 2,8 8,1 27 14 40 22 S 0,1 0,0
11.11.2019 20:00:00 -1,5 -1,8 -1,5 0,2 2,8 8,1 32 17 51 28 S 0,1 0,0
11.11.2019 19:00:00 -1,8 -2,1 -1,7 0,2 2,9 8,1 33 18 50 27 S 0,1 0,0
11.11.2019 18:00:00 -2,3 -2,6 -2,2 0,2 2,9 8,1 35 19 53 29 SSE 0,1 0,0
11.11.2019 17:00:00 -2,7 -3,1 -2,5 0,2 2,9 8,1 39 21 55 30 S 0,1 0,0
11.11.2019 16:00:00 -3,4 -3,8 -3,1 0,2 2,9 8,1 35 19 52 28 S 0,1 0,0
11.11.2019 15:00:00 -3,1 -3,5 -2,6 0,1 2,9 8,1 33 18 48 26 S 0,1 0,0
11.11.2019 14:00:00 -3,1 -3,5 -2,3 0,1 3,0 8,2 34 18 47 25 S 0,1 0,0
11.11.2019 13:00:00 -3,0 -3,3 -2,3 0,1 3,0 8,2 31 17 49 26 S 0,1 0,0
11.11.2019 12:00:00 -3,3 -3,6 -2,6 0,1 3,0 8,2 40 21 49 27 S 0,1 0,0
11.11.2019 11:00:00 -3,3 -3,6 -2,3 0,0 3,1 8,2 31 17 40 22 S 0,1 0,0
11.11.2019 10:00:00 -2,9 -3,2 -2,0 0,0 3,1 8,2 20 11 28 15 S 0,1 0,0
11.11.2019 09:00:00 -2,9 -3,3 -2,3 -0,1 3,2 8,2 15 8 24 13 S 0,1 0,0
11.11.2019 08:00:00 -3,8 -4,2 -3,8 -0,2 3,2 8,2 15 8 19 11 S 0,1 0,0
11.11.2019 07:00:00 -3,6 -4,5 -5,0 -0,2 3,3 8,2 14 7 21 11 S 0,2 0,0
11.11.2019 06:00:00 -1,9 -3,3 -3,8 -0,1 3,3 8,2 19 10 22 12 SSW 37 0,0
11.11.2019 05:00:00 -1,8 -3,1 -3,7 0,0 3,4 8,2 19 10 21 11 SSW 37 0,0
11.11.2019 04:00:00 -2,4 -3,5 -4,9 0,2 3,4 8,2 13 7 18 10 SSW 28 0,0
11.11.2019 03:00:00 -1,7 -3,0 -3,7 0,2 3,5 8,2 16 9 20 11 SSW 40 0,0
11.11.2019 02:00:00 -1,8 -3,9 -4,7 0,3 3,5 8,2 13 7 16 9 SSW 57 0,0
11.11.2019 01:00:00 -0,5 -3,2 -3,6 0,4 3,6 8,2 12 7 16 8 SW 59 0,0
11.11.2019 00:00:00 -0,5 -3,3 -3,8 0,5 3,6 8,3 12 7 16 9 SW 67 0,0
10.11.2019 23:00:00 -1,0 -2,8 -3,1 0,6 3,7 8,3 14 8 18 10 SSW 41 0,0
10.11.2019 22:00:00 -1,2 -3,0 -3,4 0,7 3,7 8,3 10 5 14 7 SSW 46 0,0
10.11.2019 21:00:00 -0,1 -3,1 -4,3 0,8 3,8 8,3 5 3 10 6 WSW 67 0,0
10.11.2019 20:00:00 -0,2 -2,3 -3,1 0,9 3,8 8,3 9 5 10 5 WSW 45 0,0
10.11.2019 19:00:00 -0,3 -2,1 -3,5 1,0 3,9 8,3 4 2 6 4 SSW 40 0,0
10.11.2019 18:00:00 -0,1 -2,4 -3,3 1,0 3,9 8,3 1 1 6 4 S 50 0,0
10.11.2019 17:00:00 0,7 -0,8 -2,1 1,0 3,8 8,3 5 3 9 5 S 21 0,0
10.11.2019 16:00:00 1,9 0,0 0,0 1,8 3,8 8,3 3 1 6 4 NE 37 0,0
10.11.2019 15:00:00 2,1 -1,0 1,9 2,2 3,7 8,3 6 3 10 5 NE 53 0,0
10.11.2019 14:00:00 2,4 -0,5 2,0 1,4 3,6 8,3 5 3 15 8 N 50 0,0
10.11.2019 13:00:00 2,7 -2,0 2,2 0,7 3,6 8,3 4 2 10 6 NE 65 0,0
10.11.2019 12:00:00 3,9 -1,6 4,0 0,5 3,7 8,3 2 1 11 6 E 75 0,0
10.11.2019 11:00:00 3,4 -1,1 3,2 0,4 3,7 8,3 5 3 10 5 ENE 61 0,0
10.11.2019 10:00:00 1,5 -1,0 2,5 0,4 3,8 8,3 5 3 10 5 NNE 65 0,0
10.11.2019 09:00:00 0,5 -1,6 0,6 0,4 3,9 8,3 7 4 16 9 NE 48 0,0
10.11.2019 08:00:00 -0,6 -2,1 -1,4 0,4 3,9 8,3 13 7 18 10 NNW 59 0,0
10.11.2019 07:00:00 -1,2 -2,2 -2,5 0,5 4,0 8,3 13 7 16 9 W 38 0,0
10.11.2019 06:00:00 -0,9 -1,1 -1,2 0,6 4,1 8,3 8 4 15 8 S 0,1 0,0
10.11.2019 05:00:00 -1,2 -1,4 -1,6 0,6 4,2 8,4 8 5 12 6 SSE 0,1 0,0
10.11.2019 04:00:00 -0,8 -2,6 -4,3 0,6 4,2 8,4 6 3 9 5 SSE 49 0,0
10.11.2019 03:00:00 -0,9 -2,5 -4,4 0,7 4,3 8,4 5 3 9 5 W 41 0,0
10.11.2019 02:00:00 -0,8 -2,4 -4,2 0,8 4,4 8,4 7 4 10 5 WSW 57 0,0
10.11.2019 01:00:00 -1,1 -2,5 -4,0 1,0 4,5 8,4 8 4 10 6 SW 61 0,0
10.11.2019 00:00:00 -0,9 -2,1 -3,3 1,1 4,6 8,4 10 5 19 11 WSW 55 0,0
09.11.2019 23:00:00 -0,6 -1,8 -1,8 1,1 4,7 8,4 18 10 24 13 WSW 38 0,0
09.11.2019 22:00:00 -0,7 -1,7 -1,8 1,2 4,8 8,4 15 8 19 10 SW 35 0,0
09.11.2019 21:00:00 -0,1 -0,7 -1,1 1,3 4,9 8,4 13 7 18 10 SW 18 0,0
09.11.2019 20:00:00 0,5 0,2 0,4 2,0 5,0 8,4 12 6 24 13 WSW 6 0,0
09.11.2019 19:00:00 0,4 0,0 0,1 2,2 5,1 8,4 19 10 31 17 W 12 0,0
09.11.2019 18:00:00 0,5 0,1 0,5 2,5 5,2 8,4 16 9 41 22 WNW 10 0,0
09.11.2019 17:00:00 0,5 0,3 0,7 2,8 5,2 8,4 22 12 39 21 W 0,3 0,0
09.11.2019 16:00:00 0,8 0,5 0,9 3,4 5,2 8,4 24 13 39 21 W 32 0,0
09.11.2019 15:00:00 1,0 0,9 1,2 3,8 5,2 8,4 21 11 32 18 W 0,2 0,0
09.11.2019 14:00:00 1,4 1,2 1,7 4,3 5,2 8,4 16 8 31 17 WNW 0,3 0,1
09.11.2019 13:00:00 1,6 1,4 2,0 4,5 5,2 8,4 17 9 30 16 W 0,4 0,6
09.11.2019 12:00:00 2,3 2,0 2,7 4,4 5,2 8,4 16 9 26 14 W 12 0,9
09.11.2019 11:00:00 2,7 2,6 2,9 4,4 5,1 8,4 13 7 23 13 W 0,3 0,2
09.11.2019 10:00:00 3,1 2,9 3,2 4,2 5,2 8,4 13 7 21 11 W 0,1 0,0
09.11.2019 09:00:00 3,2 3,1 3,3 4,0 5,2 8,5 11 6 21 11 W 0,2 0,0
09.11.2019 08:00:00 3,1 3,0 3,2 3,7 5,2 8,5 11 6 19 10 W 0,2 0,0
09.11.2019 07:00:00 2,9 2,8 2,9 3,5 5,2 8,5 10 5 15 8 WSW 0,2 0,0
09.11.2019 06:00:00 2,8 2,5 2,3 3,3 5,2 8,5 10 5 16 9 W 3,0 0,0
09.11.2019 05:00:00 3,3 3,0 3,2 4,0 5,2 8,5 12 6 18 10 WSW 4,8 0,0
09.11.2019 04:00:00 3,4 3,1 3,3 4,1 5,2 8,5 11 6 19 10 W 3,9 0,0
09.11.2019 03:00:00 3,6 3,3 3,5 4,2 5,2 8,5 9 5 17 9 W 1,9 0,0
09.11.2019 02:00:00 3,9 3,6 3,7 4,3 5,2 8,5 9 5 14 8 W 2,8 0,0
09.11.2019 01:00:00 4,5 4,3 4,3 4,4 5,2 8,5 9 5 16 9 SW 2,0 0,0
09.11.2019 00:00:00 4,4 4,3 4,2 4,3 5,2 8,5 13 7 19 11 S 1,8 0,0
08.11.2019 23:00:00 4,5 4,4 4,2 4,5 5,2 8,5 11 6 21 11 S 2,5 0,0
08.11.2019 22:00:00 4,6 4,6 4,5 4,6 5,1 8,5 12 7 19 11 S 0,1 0,0
08.11.2019 21:00:00 4,7 4,6 4,6 4,6 5,1 8,5 10 5 16 9 SE 0,2 0,0
08.11.2019 20:00:00 4,8 4,7 4,6 4,5 5,1 8,5 10 6 16 9 SSE 0,3 0,0
08.11.2019 19:00:00 4,7 4,5 4,5 4,4 5,1 8,5 9 5 18 10 SE 3,1 0,0
08.11.2019 18:00:00 4,4 4,1 4,3 4,3 5,0 8,5 9 5 14 8 ESE 7 0,0
08.11.2019 17:00:00 4,3 4,0 4,1 4,4 5,0 8,5 10 5 23 12 E 6 0,0
08.11.2019 16:00:00 4,1 3,7 4,0 4,5 4,9 8,6 12 7 30 16 E 9 0,0
08.11.2019 15:00:00 4,1 3,6 4,0 4,6 4,9 8,6 18 10 34 18 ESE 11 0,0
08.11.2019 14:00:00 4,1 3,7 4,1 4,9 4,8 8,6 18 10 32 18 E 7 0,0
08.11.2019 13:00:00 4,1 3,8 4,1 5,2 4,6 8,6 22 12 32 17 E 7 0,0
08.11.2019 12:00:00 4,3 4,0 4,7 5,0 4,6 8,6 20 11 35 19 E 9 0,0
08.11.2019 11:00:00 3,9 3,8 4,3 5,0 4,5 8,6 16 9 27 15 E 6 0,0
08.11.2019 10:00:00 3,3 3,3 3,6 4,0 4,5 8,6 21 11 30 16 SSE 0,1 0,0
08.11.2019 09:00:00 2,9 2,9 3,0 3,3 4,5 8,6 14 7 26 14 SE 0,1 0,0
08.11.2019 08:00:00 2,8 2,8 2,8 2,7 4,5 8,6 14 8 25 13 ESE 0,1 0,0
08.11.2019 07:00:00 2,7 2,7 2,5 2,2 4,6 8,6 14 7 21 11 SE 0,1 0,0
08.11.2019 06:00:00 1,5 1,4 1,4 1,2 4,6 8,6 13 7 16 9 SE 0,1 0,0
08.11.2019 05:00:00 1,4 1,0 0,1 1,3 4,7 8,6 9 5 14 7 ESE 0,1 0,0
08.11.2019 04:00:00 2,0 1,4 0,6 1,5 4,8 8,6 5 3 16 9 SW 0,3 0,0
08.11.2019 03:00:00 1,8 1,8 1,3 1,6 4,9 8,6 7 4 19 10 SSW 0,1 0,0
08.11.2019 02:00:00 1,9 1,4 0,7 1,5 5,0 8,6 11 6 15 8 S 7 0,0
08.11.2019 01:00:00 2,4 1,7 1,1 1,9 5,0 8,6 12 7 18 10 SSE 9 0,0
08.11.2019 00:00:00 3,1 2,1 2,1 2,3 5,1 8,6 16 9 22 12 SSW 19 0,0
07.11.2019 23:00:00 3,1 2,0 1,9 2,4 5,2 8,7 16 9 26 14 S 20 0,0
07.11.2019 22:00:00 3,6 2,6 2,6 2,7 5,2 8,7 22 12 26 14 S 18 0,0
07.11.2019 21:00:00 3,4 2,8 2,5 2,8 5,3 8,7 18 10 29 15 S 12 0,0
07.11.2019 20:00:00 3,7 3,2 2,8 2,9 5,3 8,7 22 12 29 16 S 9 0,0
07.11.2019 19:00:00 3,6 3,1 2,9 3,1 5,4 8,7 23 13 32 17 S 11 0,0
07.11.2019 18:00:00 3,3 3,1 2,9 3,1 5,4 8,7 21 12 32 17 S 3,8 0,0
07.11.2019 17:00:00 3,5 3,0 2,7 3,7 5,4 8,7 27 14 40 21 S 10 0,0
07.11.2019 16:00:00 3,9 3,5 3,3 5,1 5,3 8,7 27 15 39 21 S 6 0,0
07.11.2019 15:00:00 3,9 3,6 4,1 5,5 5,2 8,7 26 14 44 24 S 6 0,0
07.11.2019 14:00:00 3,8 3,2 4,2 5,8 5,1 8,7 24 13 40 22 S 14 0,0
07.11.2019 13:00:00 3,4 3,3 4,0 5,5 5,0 8,7 19 10 34 19 S 0,3 0,0
07.11.2019 12:00:00 3,2 3,1 3,8 5,7 4,9 8,7 22 12 34 18 S 0,3 0,0
07.11.2019 11:00:00 3,5 3,3 4,0 5,5 4,8 8,7 20 11 35 19 S 3,5 0,0
07.11.2019 10:00:00 3,1 3,1 3,8 4,4 4,8 8,7 21 11 34 18 S 0,2 0,0
07.11.2019 09:00:00 2,7 2,7 2,9 3,5 4,8 8,7 20 11 33 18 S 0,1 0,0
07.11.2019 08:00:00 2,3 2,3 2,4 3,1 4,8 8,7 22 12 31 17 SSW 0,1 0,0
07.11.2019 07:00:00 2,4 2,4 2,4 3,0 4,9 8,7 21 12 33 18 S 0,1 0,0
07.11.2019 06:00:00 2,4 2,3 2,4 2,9 4,9 8,8 20 11 29 16 S 0,1 0,0
07.11.2019 05:00:00 2,3 2,2 2,2 2,5 5,0 8,8 16 9 21 11 S 0,1 0,0
07.11.2019 04:00:00 2,9 1,9 2,1 2,2 5,0 8,8 16 8 26 14 SW 67 0,0
07.11.2019 03:00:00 2,8 2,0 1,8 2,5 5,1 8,8 19 10 24 13 SW 62 0,0
07.11.2019 02:00:00 2,4 2,0 1,9 2,6 5,1 8,8 16 8 21 11 SSW 32 0,0
07.11.2019 01:00:00 2,9 2,3 2,5 3,3 5,1 8,8 10 5 22 12 SSW 33 0,0
07.11.2019 00:00:00 3,0 2,4 2,7 3,4 5,1 8,8 16 9 22 12 SW 33 0,0
06.11.2019 23:00:00 2,9 2,4 2,7 3,3 5,2 8,8 11 6 19 10 SSW 26 0,0
06.11.2019 22:00:00 3,0 2,3 2,7 3,3 5,2 8,8 13 7 19 10 SSW 29 0,0
06.11.2019 21:00:00 3,1 2,3 2,7 3,2 5,3 8,8 13 7 25 13 SSW 30 0,1
06.11.2019 20:00:00 3,2 1,7 2,9 2,8 5,3 8,8 18 10 27 15 SW 66 0,0
06.11.2019 19:00:00 2,4 1,2 1,4 2,4 5,4 8,8 17 9 26 14 SW 60 0,0
06.11.2019 18:00:00 2,7 1,8 1,3 2,9 5,4 8,8 18 10 23 13 SSW 36 0,0
06.11.2019 17:00:00 3,2 1,5 2,3 3,7 5,3 8,8 16 9 26 14 SW 65 0,0

tt = temperature
td = dewpoint
tt 5cm = temperature 5cm
tt -5cm = temperature -5cm
tt -20cm = temperature -20cm
tt -100cm = temperature -100cm
ff = wind speed
fx = gusts
dd = wind direction
vv = visibility
rr = precipitation

Next stations